Time;durP1;ratioP1;P1;durP2;ratioP2;P2;SDS_P1;SDS_P2;PMS_P1;PMS_P2;Temp;Humidity;BMP_temperature;BMP_pressure;BME280_temperature;BME280_humidity;BME280_pressure;Samples;Min_cycle;Max_cycle;Signal;HPM_P1;HPM_P2
2022/05/12 00:00:30;;;;;;;15.27;6.30;;;;;;;15.83;58.00;101076.06;4956890;28;20039;-80
2022/05/12 00:02:56;;;;;;;14.32;7.05;;;;;;;15.85;58.22;101084.91;4956880;28;20031;-81
2022/05/12 00:05:23;;;;;;;16.88;7.45;;;;;;;15.78;58.06;101065.66;4955406;29;20082;-81
2022/05/12 00:07:49;;;;;;;12.30;6.45;;;;;;;15.72;58.33;101071.66;4956834;28;20031;-79
2022/05/12 00:10:18;;;;;;;26.52;9.48;;;;;;;15.68;58.65;101074.84;4956331;28;20027;-81
2022/05/12 00:12:44;;;;;;;10.70;6.85;;;;;;;15.56;58.69;101081.44;4956433;28;20027;-81
2022/05/12 00:15:19;;;;;;;12.02;6.88;;;;;;;15.54;58.95;101073.44;4956078;28;20533;-80
2022/05/12 00:17:45;;;;;;;14.88;7.32;;;;;;;15.62;59.16;101080.84;4956496;28;20023;-80
2022/05/12 00:20:16;;;;;;;15.07;6.20;;;;;;;15.66;59.44;101074.09;4956482;28;20034;-80
2022/05/12 00:22:42;;;;;;;19.73;7.03;;;;;;;15.68;59.46;101070.28;4955797;28;20023;-81
2022/05/12 00:25:17;;;;;;;11.70;6.72;;;;;;;15.65;59.45;101069.72;4956765;28;20318;-81
2022/05/12 00:27:42;;;;;;;15.15;7.35;;;;;;;15.63;59.62;101060.84;4956153;28;20085;-80
2022/05/12 00:30:09;;;;;;;14.20;7.40;;;;;;;15.63;59.57;101063.56;4956326;28;20030;-80
2022/05/12 00:32:41;;;;;;;14.38;7.82;;;;;;;15.64;59.25;101062.56;4956235;28;20061;-79
2022/05/12 00:35:09;;;;;;;22.93;7.50;;;;;;;15.71;59.34;101072.69;4956238;28;20027;-80
2022/05/12 00:37:35;;;;;;;19.10;8.57;;;;;;;15.68;59.33;101064.00;4956255;28;20075;-80
2022/05/12 00:40:00;;;;;;;14.48;7.75;;;;;;;15.70;59.20;101065.53;4956121;28;20023;-80
2022/05/12 00:42:26;;;;;;;12.02;7.28;;;;;;;15.67;58.87;101073.97;4956023;29;20485;-80
2022/05/12 00:44:52;;;;;;;13.52;8.30;;;;;;;15.68;59.09;101064.00;4954960;29;20378;-80
2022/05/12 00:47:18;;;;;;;20.95;8.35;;;;;;;15.71;59.00;101074.53;4956076;28;20031;-80
2022/05/12 00:49:46;;;;;;;17.48;8.68;;;;;;;15.75;59.17;101067.81;4957558;28;20031;-80
2022/05/12 00:52:26;;;;;;;15.90;8.18;;;;;;;15.74;59.29;101068.81;4957277;28;20024;-79
2022/05/12 00:55:06;;;;;;;18.58;8.90;;;;;;;15.73;59.57;101072.53;4956704;28;20031;-80
2022/05/12 00:57:48;;;;;;;18.45;8.90;;;;;;;15.69;59.58;101060.25;4955762;28;20031;-79
2022/05/12 01:00:14;;;;;;;14.90;7.80;;;;;;;15.67;59.56;101073.13;4956041;28;20066;-80
2022/05/12 01:02:42;;;;;;;22.77;8.65;;;;;;;15.71;59.62;101069.13;4955560;28;20077;-80
2022/05/12 01:05:09;;;;;;;16.60;8.75;;;;;;;15.73;59.88;101062.53;4955462;28;20086;-80
2022/05/12 01:07:35;;;;;;;14.85;8.30;;;;;;;15.76;59.93;101074.94;4956001;28;20047;-80
2022/05/12 01:10:02;;;;;;;12.00;8.18;;;;;;;15.76;59.92;101069.53;4955456;28;20027;-81
2022/05/12 01:12:28;;;;;;;17.58;9.00;;;;;;;15.78;59.93;101065.66;4955655;28;20037;-81
2022/05/12 01:14:54;;;;;;;19.45;8.93;;;;;;;15.83;59.55;101078.78;4955373;28;20031;-79
2022/05/12 01:17:19;;;;;;;15.55;9.63;;;;;;;15.83;59.84;101069.78;4955537;28;20045;-79
2022/05/12 01:19:46;;;;;;;17.67;9.70;;;;;;;15.82;59.67;101068.94;4970123;28;20110;-81
2022/05/12 01:22:40;;;;;;;16.52;9.00;;;;;;;15.82;59.62;101074.34;4955231;28;20023;-80
2022/05/12 01:25:12;;;;;;;23.90;10.30;;;;;;;15.82;60.08;101068.06;4955250;28;20027;-81
2022/05/12 01:27:37;;;;;;;23.33;10.67;;;;;;;15.79;59.86;101077.38;4954872;28;20114;-78
2022/05/12 01:30:04;;;;;;;21.58;10.32;;;;;;;15.75;59.96;101067.81;4955136;28;20031;-80
2022/05/12 01:32:30;;;;;;;24.63;10.20;;;;;;;15.81;59.80;101069.09;4969611;28;20516;-81
2022/05/12 01:34:56;;;;;;;35.22;10.07;;;;;;;15.81;59.46;101078.06;4955363;28;20027;-79
2022/05/12 01:37:22;;;;;;;15.35;9.25;;;;;;;15.76;60.18;101075.81;4955363;29;20476;-80
2022/05/12 01:39:48;;;;;;;19.00;9.80;;;;;;;15.63;60.13;101071.69;4955176;28;20030;-79
2022/05/12 01:42:14;;;;;;;25.20;10.98;;;;;;;15.70;60.69;101072.81;4954193;28;20111;-79
2022/05/12 01:44:41;;;;;;;17.80;10.73;;;;;;;15.76;60.52;101072.22;4955219;28;20106;-79
2022/05/12 01:47:08;;;;;;;24.80;10.70;;;;;;;15.80;60.57;101073.66;4954808;28;20027;-79
2022/05/12 01:49:34;;;;;;;19.35;10.73;;;;;;;15.84;60.49;101075.06;4954774;28;20058;-80
2022/05/12 01:52:00;;;;;;;17.50;10.80;;;;;;;15.88;60.78;101073.75;4955041;29;20062;-80
2022/05/12 01:54:27;;;;;;;19.45;10.32;;;;;;;15.86;60.65;101066.78;4954799;28;20039;-80
2022/05/12 01:56:52;;;;;;;15.85;9.82;;;;;;;15.97;60.85;101081.00;4955036;28;20039;-81
2022/05/12 01:59:18;;;;;;;18.40;10.13;;;;;;;16.05;60.52;101075.72;4954748;28;20103;-80
2022/05/12 02:01:45;;;;;;;15.25;8.95;;;;;;;16.07;60.60;101076.41;4955064;28;20041;-81
2022/05/12 02:04:11;;;;;;;23.02;9.57;;;;;;;16.11;60.33;101068.84;4955063;28;20054;-81
2022/05/12 02:06:36;;;;;;;16.42;8.98;;;;;;;16.08;60.80;101077.28;4954799;29;20450;-81
2022/05/12 02:09:03;;;;;;;18.52;9.02;;;;;;;16.09;61.25;101068.97;4954548;28;20059;-81
2022/05/12 02:11:29;;;;;;;16.95;9.07;;;;;;;16.10;60.98;101065.25;4954531;28;20035;-79
2022/05/12 02:13:55;;;;;;;14.38;8.98;;;;;;;16.20;61.05;101068.78;4954646;28;20035;-79
2022/05/12 02:16:24;;;;;;;19.63;10.02;;;;;;;16.26;60.70;101070.91;4954582;29;20088;-81
2022/05/12 02:18:50;;;;;;;16.33;9.55;;;;;;;16.24;60.63;101067.47;4954757;28;20033;-81
2022/05/12 02:21:16;;;;;;;19.55;9.57;;;;;;;16.29;60.39;101072.47;4954503;28;20054;-81
2022/05/12 02:23:42;;;;;;;16.95;9.50;;;;;;;16.38;60.57;101071.56;4954684;28;20027;-80
2022/05/12 02:26:07;;;;;;;27.88;11.02;;;;;;;16.33;60.88;101072.00;4960193;29;20031;-80
2022/05/12 02:28:32;;;;;;;16.38;10.05;;;;;;;16.46;60.52;101070.78;4962064;28;20027;-80
2022/05/12 02:30:58;;;;;;;20.92;10.23;;;;;;;16.49;60.58;101070.47;4954445;28;20046;-80
2022/05/12 02:33:24;;;;;;;19.25;10.18;;;;;;;16.46;60.68;101060.78;4969127;28;20035;-81
2022/05/12 02:35:49;;;;;;;21.55;11.23;;;;;;;16.55;60.42;101075.31;4954656;28;20028;-81
2022/05/12 02:38:15;;;;;;;16.20;10.25;;;;;;;16.54;60.35;101068.19;4954492;28;20099;-80
2022/05/12 02:40:41;;;;;;;24.42;10.55;;;;;;;16.61;60.37;101063.84;4954549;28;20034;-80
2022/05/12 02:43:23;;;;;;;20.15;12.18;;;;;;;16.64;60.36;101075.28;4954648;28;20366;-80
2022/05/12 02:45:56;;;;;;;17.65;10.93;;;;;;;16.66;59.97;101077.84;4956946;28;20486;-80
2022/05/12 02:48:26;;;;;;;23.38;12.25;;;;;;;16.69;60.26;101072.13;4958013;28;20035;-80
2022/05/12 02:50:52;;;;;;;31.00;13.13;;;;;;;16.65;60.07;101078.84;4957938;28;20031;-80
2022/05/12 02:53:18;;;;;;;21.38;11.02;;;;;;;16.57;59.88;101086.91;4957809;28;20035;-80
2022/05/12 02:55:44;;;;;;;25.70;11.93;;;;;;;16.40;59.73;101091.25;4957832;28;20035;-80
2022/05/12 02:58:11;;;;;;;28.88;12.05;;;;;;;16.39;59.94;101091.41;4957842;28;20501;-81
2022/05/12 03:00:37;;;;;;;21.98;11.43;;;;;;;16.38;59.80;101092.41;4958046;28;20035;-81
2022/05/12 03:03:03;;;;;;;25.38;12.55;;;;;;;16.36;59.88;101097.16;4958332;28;20517;-81
2022/05/12 03:05:29;;;;;;;24.02;12.05;;;;;;;16.34;59.86;101095.44;4958602;28;20031;-81
2022/05/12 03:07:54;;;;;;;22.23;14.00;;;;;;;16.29;59.99;101097.75;4957952;28;20525;-81
2022/05/12 03:10:20;;;;;;;30.92;14.55;;;;;;;16.30;60.06;101099.44;4957834;28;20453;-81
2022/05/12 03:12:45;;;;;;;38.15;17.90;;;;;;;16.24;60.21;101094.59;4957748;28;20034;-80
2022/05/12 03:15:12;;;;;;;43.13;19.40;;;;;;;16.25;60.58;101096.31;4957596;28;20035;-79
2022/05/12 03:17:39;;;;;;;32.28;18.73;;;;;;;16.26;60.54;101103.47;4954870;28;20483;-80
2022/05/12 03:20:09;;;;;;;37.05;19.05;;;;;;;16.24;60.85;101094.59;4942370;29;20028;-78
2022/05/12 03:22:35;;;;;;;44.47;18.85;;;;;;;16.18;61.04;101092.50;4938244;29;20031;-78
2022/05/12 03:25:01;;;;;;;32.00;18.67;;;;;;;16.08;61.35;101086.28;4938557;29;20094;-79
2022/05/12 03:27:27;;;;;;;39.03;17.60;;;;;;;16.13;61.68;101093.94;4938466;29;20027;-79
2022/05/12 03:29:52;;;;;;;38.42;18.30;;;;;;;16.16;62.05;101099.94;4938312;29;20102;-79
2022/05/12 03:32:17;;;;;;;39.35;17.02;;;;;;;16.20;61.87;101101.34;4938472;29;20516;-79
2022/05/12 03:34:44;;;;;;;34.17;16.35;;;;;;;16.23;62.08;101098.34;4938258;29;20525;-78
2022/05/12 03:37:10;;;;;;;37.55;16.38;;;;;;;16.28;61.87;101090.59;4938104;29;20058;-78
2022/05/12 03:39:38;;;;;;;35.83;17.42;;;;;;;16.33;62.28;101101.84;4938501;29;20720;-78
2022/05/12 03:42:06;;;;;;;34.63;16.70;;;;;;;16.39;61.68;101100.38;4938468;29;20046;-77
2022/05/12 03:44:49;;;;;;;35.42;16.30;;;;;;;16.42;61.37;101101.97;4938130;29;20027;-78
2022/05/12 03:47:26;;;;;;;37.42;16.00;;;;;;;16.51;61.30;101103.78;4938159;29;20059;-78
2022/05/12 03:49:54;;;;;;;34.75;15.57;;;;;;;16.53;61.43;101099.03;4937891;29;20032;-78
2022/05/12 03:52:20;;;;;;;30.05;13.85;;;;;;;16.64;61.23;101112.44;4937903;29;20111;-79
2022/05/12 03:54:47;;;;;;;27.65;12.98;;;;;;;16.69;61.38;101111.00;4938311;29;20115;-80
2022/05/12 03:57:13;;;;;;;29.83;13.43;;;;;;;16.72;61.05;101115.25;4938376;29;20036;-79
2022/05/12 03:59:41;;;;;;;43.38;13.70;;;;;;;16.81;60.84;101114.34;4938144;29;20062;-80
2022/05/12 04:02:08;;;;;;;33.33;14.10;;;;;;;16.81;61.04;101117.94;4939340;29;20039;-78
2022/05/12 04:04:34;;;;;;;37.38;13.23;;;;;;;16.92;61.00;101118.69;4942963;29;20039;-77
2022/05/12 04:07:00;;;;;;;31.02;20.92;;;;;;;16.89;60.90;101128.00;4938462;29;20028;-80
2022/05/12 04:09:27;;;;;;;42.53;15.75;;;;;;;16.94;60.97;101138.44;4938027;29;20505;-80
2022/05/12 04:11:53;;;;;;;26.98;14.95;;;;;;;16.97;60.66;101127.25;4937450;29;20028;-81
2022/05/12 04:14:19;;;;;;;25.55;14.15;;;;;;;16.97;60.64;101119.94;4937728;29;20509;-79
2022/05/12 04:16:45;;;;;;;27.02;14.30;;;;;;;17.07;60.77;101126.16;4937774;29;20135;-80
2022/05/12 04:19:12;;;;;;;35.00;13.85;;;;;;;17.11;60.66;101130.28;4938392;29;20071;-82
2022/05/12 04:21:37;;;;;;;30.40;14.13;;;;;;;17.15;60.81;101133.56;4944697;29;20110;-78
2022/05/12 04:24:05;;;;;;;32.72;14.05;;;;;;;17.13;60.74;101139.13;4949163;29;20027;-78
2022/05/12 04:26:32;;;;;;;25.35;13.77;;;;;;;17.17;60.74;101137.81;4955606;29;20182;-78
2022/05/12 04:28:57;;;;;;;33.20;13.75;;;;;;;17.22;60.60;101143.63;4956872;28;20058;-81
2022/05/12 04:31:23;;;;;;;25.75;13.73;;;;;;;17.30;60.80;101142.88;4956175;29;20035;-79
2022/05/12 04:36:33;;;;;;;35.97;15.20;;;;;;;17.33;60.66;101146.16;4956277;29;20062;-79
2022/05/12 04:38:59;;;;;;;50.78;14.75;;;;;;;17.37;60.46;101155.69;4955239;28;20113;-80
2022/05/12 04:41:25;;;;;;;24.75;14.82;;;;;;;17.39;60.39;101153.69;4956040;28;20023;-79
2022/05/12 04:43:51;;;;;;;34.83;15.98;;;;;;;17.45;60.15;101152.19;4955515;28;20521;-79
2022/05/12 04:46:17;;;;;;;41.28;16.35;;;;;;;17.50;59.90;101151.72;4956538;28;20055;-82
2022/05/12 04:48:43;;;;;;;25.05;15.05;;;;;;;17.52;59.68;101141.56;4957521;28;20385;-83
2022/05/12 04:51:09;;;;;;;41.72;16.23;;;;;;;17.59;59.85;101148.94;4957509;28;20030;-81
2022/05/12 04:53:35;;;;;;;41.35;14.32;;;;;;;17.59;59.77;101151.66;4953505;28;20090;-82
2022/05/12 04:56:01;;;;;;;48.10;14.10;;;;;;;17.72;59.62;101153.97;4953134;28;20031;-81
2022/05/12 04:58:26;;;;;;;29.63;13.48;;;;;;;17.76;59.42;101156.25;4956549;28;20070;-81
2022/05/12 05:00:52;;;;;;;30.20;12.50;;;;;;;17.84;59.20;101152.72;4955831;28;20535;-81
2022/05/12 05:03:17;;;;;;;49.05;14.52;;;;;;;17.90;59.14;101152.94;4955116;28;20031;-78
2022/05/12 05:05:44;;;;;;;42.53;13.20;;;;;;;18.00;59.31;101160.16;4955071;28;20110;-78
2022/05/12 05:08:13;;;;;;;43.92;13.20;;;;;;;18.05;59.07;101149.63;4954290;28;20031;-76
2022/05/12 05:10:40;;;;;;;50.75;14.98;;;;;;;18.09;59.14;101151.88;4954614;28;20086;-76
2022/05/12 05:13:05;;;;;;;27.08;14.05;;;;;;;18.18;58.83;101161.81;4954654;28;20860;-77
2022/05/12 05:15:32;;;;;;;61.22;16.33;;;;;;;18.24;58.78;101150.25;4954485;28;20087;-78
2022/05/12 05:17:57;;;;;;;33.45;16.13;;;;;;;18.35;58.51;101163.59;4955356;28;20074;-76
2022/05/12 05:20:27;;;;;;;38.65;18.08;;;;;;;18.38;58.42;101163.25;4954607;28;20480;-77
2022/05/12 05:22:52;;;;;;;34.22;15.20;;;;;;;18.38;58.24;101163.25;4969698;28;20059;-77
2022/05/12 05:25:18;;;;;;;38.97;17.33;;;;;;;18.45;58.12;101168.91;4955060;28;20058;-77
2022/05/12 05:27:45;;;;;;;40.92;19.17;;;;;;;18.54;58.04;101167.13;4981167;28;20096;-75
2022/05/12 05:30:14;;;;;;;49.75;17.98;;;;;;;18.58;58.09;101168.50;4966561;28;20035;-76
2022/05/12 05:32:39;;;;;;;35.67;16.65;;;;;;;18.62;57.90;101172.63;4964866;28;20404;-77
2022/05/12 05:35:06;;;;;;;31.02;15.73;;;;;;;18.62;58.04;101162.59;4956765;28;20027;-77
2022/05/12 05:37:32;;;;;;;44.17;16.88;;;;;;;18.69;57.98;101168.22;4954082;28;20054;-76
2022/05/12 05:39:57;;;;;;;44.78;18.58;;;;;;;18.81;57.88;101175.94;4954744;28;20023;-78
2022/05/12 05:42:23;;;;;;;37.38;17.77;;;;;;;18.90;57.79;101171.34;4954720;28;20182;-77
2022/05/12 05:44:49;;;;;;;56.30;24.98;;;;;;;19.01;57.70;101163.75;4953795;28;20035;-77
2022/05/12 05:47:15;;;;;;;55.53;23.60;;;;;;;19.08;57.72;101163.91;4953679;28;20054;-77
2022/05/12 05:49:41;;;;;;;55.85;24.88;;;;;;;19.13;57.69;101169.72;4953591;28;20489;-76
2022/05/12 05:54:52;;;;;;;47.22;24.52;;;;;;;19.31;57.41;101167.72;4953596;29;20072;-77
2022/05/12 05:57:25;;;;;;;51.08;24.60;;;;;;;19.40;57.23;101169.47;4953977;29;20106;-77
2022/05/12 05:59:57;;;;;;;43.05;24.25;;;;;;;19.49;57.35;101179.38;4953383;28;20135;-77
2022/05/12 06:02:23;;;;;;;62.17;24.73;;;;;;;19.53;57.08;101169.84;4953555;28;20023;-76
2022/05/12 06:04:48;;;;;;;52.22;23.33;;;;;;;19.57;57.14;101166.78;4954182;28;20509;-76
2022/05/12 06:07:14;;;;;;;37.83;20.75;;;;;;;19.65;57.03;101170.34;4954276;28;20060;-78
2022/05/12 06:09:41;;;;;;;48.45;23.50;;;;;;;19.70;57.24;101169.81;4954349;28;20042;-79
2022/05/12 06:12:08;;;;;;;64.40;23.63;;;;;;;19.81;57.22;101172.22;4954223;28;20039;-79
2022/05/12 06:14:33;;;;;;;45.75;20.63;;;;;;;19.89;57.00;101164.03;4954187;28;20094;-79
2022/05/12 06:16:59;;;;;;;43.72;20.75;;;;;;;20.02;56.88;101167.94;4954443;28;20035;-78
2022/05/12 06:19:24;;;;;;;49.05;20.88;;;;;;;20.07;56.58;101165.53;4954248;28;20035;-79
2022/05/12 06:21:50;;;;;;;49.40;23.98;;;;;;;20.23;56.38;101167.38;4958295;28;20031;-79
2022/05/12 06:24:15;;;;;;;56.33;24.40;;;;;;;20.31;55.99;101164.66;4972807;28;20034;-78
2022/05/12 06:26:41;;;;;;;50.20;24.58;;;;;;;20.45;56.06;101168.56;4958076;28;20099;-79
2022/05/12 06:29:06;;;;;;;50.38;26.67;;;;;;;20.55;55.65;101169.19;4958201;28;20101;-78
2022/05/12 06:31:33;;;;;;;58.58;26.33;;;;;;;20.68;55.57;101168.63;4957768;28;20023;-80
2022/05/12 06:33:59;;;;;;;55.58;26.30;;;;;;;20.77;55.34;101167.56;4957761;28;20063;-78
2022/05/12 06:36:25;;;;;;;54.13;26.48;;;;;;;20.83;55.64;101172.31;4957819;28;20031;-77
2022/05/12 06:38:51;;;;;;;59.75;28.58;;;;;;;20.89;55.40;101174.34;4957672;28;20110;-79
2022/05/12 06:41:16;;;;;;;56.58;28.98;;;;;;;20.98;54.98;101165.94;4957798;28;20070;-80
2022/05/12 06:43:45;;;;;;;63.28;29.38;;;;;;;21.06;54.88;101167.78;4958054;28;20385;-79
2022/05/12 06:46:16;;;;;;;49.63;25.23;;;;;;;21.15;54.75;101164.00;4958027;28;20528;-80
2022/05/12 06:48:47;;;;;;;45.55;24.90;;;;;;;21.22;54.53;101156.78;4958120;28;20035;-80
2022/05/12 06:51:14;;;;;;;43.22;24.65;;;;;;;21.38;53.80;101167.59;4956434;29;20433;-80
2022/05/12 06:53:40;;;;;;;49.70;23.50;;;;;;;21.46;53.90;101169.44;4957713;28;20418;-81
2022/05/12 06:56:07;;;;;;;40.47;21.42;;;;;;;21.55;53.47;101163.72;4957409;28;20151;-79
2022/05/12 06:58:33;;;;;;;49.63;20.75;;;;;;;21.67;53.04;101167.72;4957418;28;20081;-79
2022/05/12 07:01:00;;;;;;;32.42;19.40;;;;;;;21.83;52.87;101171.38;4957779;28;20070;-81
2022/05/12 07:03:26;;;;;;;46.55;17.10;;;;;;;21.85;52.74;101164.66;4957782;28;20027;-80
2022/05/12 07:05:52;;;;;;;46.40;17.55;;;;;;;21.95;53.49;101161.69;4958044;28;20210;-80
2022/05/12 07:08:17;;;;;;;34.40;14.00;;;;;;;21.97;52.89;101163.22;4957945;28;20065;-80
2022/05/12 07:10:43;;;;;;;35.72;13.88;;;;;;;22.08;52.97;101164.63;4958873;28;20059;-80
2022/05/12 07:13:09;;;;;;;40.83;13.43;;;;;;;22.16;52.25;101167.31;4957660;28;20478;-78
2022/05/12 07:15:34;;;;;;;28.25;12.13;;;;;;;22.25;52.31;101157.97;4957612;28;20490;-79
2022/05/12 07:18:00;;;;;;;26.52;13.15;;;;;;;22.34;51.75;101154.09;4957707;28;20401;-79
2022/05/12 07:28:39;;;;;;;66.82;17.65;;;;;;;22.72;50.78;101157.59;4957919;29;20567;-82
2022/05/12 07:31:06;;;;;;;25.60;14.18;;;;;;;22.73;50.46;101171.13;4957405;28;20023;-83
2022/05/12 07:33:35;;;;;;;27.88;13.40;;;;;;;22.86;49.90;101164.97;4956987;28;20023;-80
2022/05/12 07:36:07;;;;;;;35.15;14.80;;;;;;;22.97;50.22;101169.09;4956782;28;20031;-80
2022/05/12 07:38:33;;;;;;;32.90;13.40;;;;;;;23.01;50.01;101167.69;4956962;28;20028;-79
2022/05/12 07:40:58;;;;;;;30.98;13.90;;;;;;;23.09;49.31;101171.16;4956987;29;20154;-83
2022/05/12 07:43:24;;;;;;;24.83;13.77;;;;;;;23.11;49.09;101171.84;4956474;28;20019;-81
2022/05/12 07:45:50;;;;;;;37.92;17.15;;;;;;;23.22;49.05;101170.47;4971270;28;20115;-80
2022/05/12 07:48:16;;;;;;;37.25;12.95;;;;;;;23.32;48.60;101160.03;4956402;28;20042;-81
2022/05/12 07:50:42;;;;;;;24.80;12.57;;;;;;;23.45;48.60;101159.34;4956355;28;20029;-80
2022/05/12 07:53:07;;;;;;;33.60;11.85;;;;;;;23.56;48.00;101154.19;4956114;28;20023;-80
2022/05/12 07:55:33;;;;;;;26.40;13.30;;;;;;;23.56;47.83;101145.94;4955860;28;20020;-79
2022/05/12 07:58:00;;;;;;;28.25;11.63;;;;;;;23.64;47.47;101151.28;4956301;28;20023;-81
2022/05/12 08:00:26;;;;;;;32.75;10.55;;;;;;;23.67;47.67;101150.03;4955869;28;20037;-81
2022/05/12 08:02:51;;;;;;;27.45;10.98;;;;;;;23.73;47.50;101149.25;4955979;28;20027;-81
2022/05/12 08:05:18;;;;;;;27.00;10.57;;;;;;;23.83;47.78;101153.38;4956415;28;20473;-81
2022/05/12 08:07:45;;;;;;;22.42;9.88;;;;;;;23.96;47.00;101151.78;4956192;28;20031;-80
2022/05/12 08:10:11;;;;;;;23.98;8.95;;;;;;;24.09;46.31;101146.41;4954652;28;20118;-81
2022/05/12 08:12:37;;;;;;;38.85;10.48;;;;;;;24.21;46.23;101144.84;4955519;28;20019;-81
2022/05/12 08:15:05;;;;;;;31.58;9.93;;;;;;;24.33;45.56;101151.47;4955920;28;20027;-80
2022/05/12 08:17:30;;;;;;;20.27;8.27;;;;;;;24.42;45.74;101147.50;4955708;28;20089;-81
2022/05/12 08:19:56;;;;;;;29.00;8.77;;;;;;;24.50;45.49;101150.09;4955812;28;20105;-80
2022/05/12 08:22:21;;;;;;;36.58;7.28;;;;;;;24.57;45.17;101137.22;4955309;28;20513;-81
2022/05/12 08:24:46;;;;;;;17.25;7.75;;;;;;;24.73;44.92;101145.16;4956075;28;20119;-81
2022/05/12 08:27:13;;;;;;;20.90;6.32;;;;;;;24.81;44.94;101142.25;4955281;29;20402;-80
2022/05/12 08:29:41;;;;;;;16.02;7.50;;;;;;;24.82;44.24;101129.34;4955375;28;20027;-81
2022/05/12 08:32:07;;;;;;;14.23;7.35;;;;;;;24.80;44.24;101129.50;4969994;28;20026;-81
2022/05/12 08:34:32;;;;;;;14.52;7.47;;;;;;;24.84;44.78;101127.22;4955516;28;20023;-81
2022/05/12 08:36:58;;;;;;;16.27;8.15;;;;;;;24.88;44.19;101136.78;4955747;28;20114;-80
2022/05/12 08:39:23;;;;;;;24.73;7.75;;;;;;;24.99;43.65;101135.31;4955720;28;20034;-81
2022/05/12 08:42:12;;;;;;;20.25;7.07;;;;;;;25.07;43.62;101146.16;4955422;28;20499;-80
2022/05/12 08:44:39;;;;;;;21.23;6.95;;;;;;;25.17;43.05;101132.81;4949824;28;20467;-80
2022/05/12 08:47:11;;;;;;;19.85;6.00;;;;;;;25.31;42.01;101142.84;4955045;28;20031;-80
2022/05/12 08:49:42;;;;;;;16.33;6.75;;;;;;;25.43;41.94;101127.41;4955261;28;20023;-79
2022/05/12 08:52:17;;;;;;;15.05;5.55;;;;;;;25.51;40.98;101123.59;4955263;28;20027;-80
2022/05/12 08:54:52;;;;;;;15.50;4.90;;;;;;;25.60;40.27;101133.38;4955241;28;20461;-80
2022/05/12 08:57:40;;;;;;;16.30;5.03;;;;;;;25.73;39.97;101136.13;4955147;28;20378;-81
2022/05/12 09:00:09;;;;;;;22.83;5.45;;;;;;;25.82;39.61;101130.22;4962698;28;20047;-80
2022/05/12 09:03:13;;;;;;;9.77;3.47;;;;;;;25.92;38.24;101116.88;4967375;28;20413;-80
2022/05/12 09:06:00;;;;;;;11.88;5.07;;;;;;;26.04;38.68;101122.56;4955382;28;20110;-84
2022/05/12 09:08:32;;;;;;;15.57;5.65;;;;;;;26.15;38.05;101116.41;4953889;29;20039;-84
2022/05/12 09:11:08;;;;;;;12.10;3.85;;;;;;;26.23;37.23;101116.22;4955222;29;20118;-83
2022/05/12 09:13:41;;;;;;;11.73;4.35;;;;;;;26.28;36.80;101113.66;4955297;28;20030;-84
2022/05/12 09:16:29;;;;;;;19.58;4.32;;;;;;;26.40;36.99;101122.09;4955077;28;20074;-85
2022/05/12 09:18:55;;;;;;;10.73;4.07;;;;;;;26.36;36.46;101109.81;4954958;28;20027;-83
2022/05/12 09:21:35;;;;;;;7.80;3.80;;;;;;;26.50;35.78;101123.34;4955676;28;20027;-82
2022/05/12 09:24:03;;;;;;;13.82;4.32;;;;;;;26.58;35.43;101119.50;4955194;28;20174;-83
2022/05/12 09:26:40;;;;;;;17.30;5.05;;;;;;;26.62;35.55;101111.63;4954939;28;20019;-84
2022/05/12 09:29:10;;;;;;;13.23;3.97;;;;;;;26.44;35.71;101106.81;4954770;29;20034;-84
2022/05/12 09:31:37;;;;;;;12.27;4.35;;;;;;;26.43;35.89;101116.16;4954951;28;20134;-84
2022/05/12 09:34:31;;;;;;;19.75;4.47;;;;;;;26.52;35.58;101120.38;4954903;28;20118;-84
2022/05/12 09:37:12;;;;;;;13.80;3.85;;;;;;;26.66;35.68;101111.00;4957526;28;20097;-82
2022/05/12 09:39:46;;;;;;;13.10;4.07;;;;;;;26.76;34.69;101114.13;4955928;28;20042;-84
2022/05/12 09:42:45;;;;;;;15.20;4.57;;;;;;;26.81;33.99;101119.03;4961297;29;20042;-84
2022/05/12 09:45:22;;;;;;;22.35;5.82;;;;;;;26.70;33.76;101109.47;4947392;28;20039;-85
2022/05/12 09:47:48;;;;;;;8.32;3.45;;;;;;;26.83;33.49;101112.22;4957203;28;20027;-84
2022/05/12 09:50:26;;;;;;;44.88;15.05;;;;;;;26.88;33.21;101093.06;4957794;28;20081;-82
2022/05/12 09:52:54;;;;;;;12.30;4.72;;;;;;;27.11;33.54;101117.41;4957705;28;20035;-83
2022/05/12 09:55:28;;;;;;;23.83;4.68;;;;;;;27.25;33.16;101096.91;4970805;28;20031;-83
2022/05/12 09:58:04;;;;;;;15.68;4.38;;;;;;;27.37;32.74;101106.16;4957478;28;20046;-84
2022/05/12 10:00:48;;;;;;;17.02;3.42;;;;;;;27.47;32.59;101092.75;4957001;28;20051;-84
2022/05/12 10:09:13;;;;;;;17.00;4.22;;;;;;;27.78;31.72;101089.09;4957483;29;20082;-84
2022/05/12 10:11:45;;;;;;;15.43;3.60;;;;;;;27.92;30.46;101090.66;4957048;28;20030;-83
2022/05/12 10:14:23;;;;;;;5.80;3.05;;;;;;;27.97;30.42;101078.91;4971692;28;20034;-83
2022/05/12 10:16:50;;;;;;;17.42;3.17;;;;;;;27.95;30.56;101075.56;4957472;28;20035;-84
2022/05/12 10:19:22;;;;;;;21.52;4.95;;;;;;;28.07;34.41;101071.81;4957280;28;20031;-83
2022/05/12 10:22:06;;;;;;;14.10;3.85;;;;;;;28.08;34.26;101079.03;4957647;28;20031;-84
2022/05/12 10:24:59;;;;;;;21.02;4.45;;;;;;;28.20;34.27;101070.81;4957384;28;20031;-83
2022/05/12 10:27:47;;;;;;;52.17;5.97;;;;;;;28.32;34.82;101079.19;4957144;28;20019;-84
2022/05/12 10:30:54;;;;;;;15.73;4.60;;;;;;;27.90;37.42;101081.75;4957663;28;20110;-83
2022/05/12 10:33:28;;;;;;;16.67;4.80;;;;;;;27.73;37.34;101069.59;4937406;28;20146;-83
2022/05/12 10:36:09;;;;;;;14.25;3.97;;;;;;;27.72;37.51;101067.88;4957785;29;20033;-84
2022/05/12 10:39:01;;;;;;;19.83;4.70;;;;;;;27.47;37.79;101067.88;4968397;28;20087;-84
2022/05/12 10:41:36;;;;;;;;;;;;;;;27.26;37.32;101084.78;4966519;28;20027;-83
2022/05/12 10:44:21;;;;;;;24.40;4.43;;;;;;;27.34;38.47;101075.38;4955486;28;19977;-84
2022/05/12 10:46:54;;;;;;;19.90;4.53;;;;;;;27.12;38.08;101068.53;4954235;28;20019;-84
2022/05/12 10:49:25;;;;;;;8.60;3.97;;;;;;;27.07;39.52;101073.84;4954180;28;20031;-83
2022/05/12 10:51:57;;;;;;;11.70;4.18;;;;;;;27.03;38.86;101074.28;4955494;28;20158;-83
2022/05/12 10:54:36;;;;;;;22.77;3.97;;;;;;;27.15;38.53;101068.09;4954349;28;20031;-84
2022/05/12 10:57:40;;;;;;;20.33;4.45;;;;;;;27.31;38.06;101064.75;4954751;28;20038;-83
2022/05/12 11:00:22;;;;;;;18.65;4.07;;;;;;;27.53;37.64;101061.44;4939650;28;20429;-85
2022/05/12 11:02:52;;;;;;;13.65;3.80;;;;;;;27.23;37.40;101062.28;4953856;29;20118;-83
2022/05/12 11:05:21;;;;;;;9.73;3.65;;;;;;;27.22;37.86;101063.34;4954057;28;20482;-84
2022/05/12 11:08:16;;;;;;;16.00;4.75;;;;;;;27.27;37.61;101058.03;4957328;29;20039;-84
2022/05/12 11:10:50;;;;;;;11.55;4.20;;;;;;;27.01;37.71;101059.88;4940086;28;20043;-84
2022/05/12 11:13:41;;;;;;;15.85;4.07;;;;;;;27.08;38.30;101068.13;4957582;28;20673;-84
2022/05/12 11:16:13;;;;;;;24.67;4.15;;;;;;;27.28;37.83;101062.44;4957413;28;20031;-84
2022/05/12 11:18:53;;;;;;;12.17;4.57;;;;;;;27.37;36.81;101058.34;4957818;28;20058;-84
2022/05/12 11:21:25;;;;;;;13.77;3.95;;;;;;;26.99;37.21;101047.38;4957180;28;20549;-84
2022/05/12 11:24:07;;;;;;;9.10;3.78;;;;;;;26.84;37.08;101055.94;4956935;28;20027;-84
2022/05/12 11:26:56;;;;;;;12.10;3.53;;;;;;;26.66;37.45;101055.81;4956688;28;20110;-84
2022/05/12 11:29:44;;;;;;;24.38;4.03;;;;;;;26.62;37.49;101054.53;4949240;28;20043;-84
2022/05/12 11:32:36;;;;;;;16.80;4.05;;;;;;;26.87;37.59;101046.38;4957186;28;20489;-84
2022/05/12 11:35:08;;;;;;;15.30;3.25;;;;;;;26.98;37.05;101041.00;4958153;28;20106;-84
2022/05/12 11:37:56;;;;;;;14.00;3.38;;;;;;;27.07;36.73;101032.44;4957151;28;20027;-84
2022/05/12 11:40:44;;;;;;;16.38;3.92;;;;;;;27.07;36.83;101030.53;4956826;28;20031;-84
2022/05/12 11:46:23;;;;;;;15.50;3.58;;;;;;;26.94;36.34;101034.22;4957491;29;20034;-82
2022/05/12 11:49:08;;;;;;;40.00;3.90;;;;;;;26.95;35.10;101018.50;4971520;28;20131;-84